createdAt,value
2018-01-11T00:01:03.836Z,27.85
2018-01-11T00:03:31.436Z,29.42
2018-01-11T00:05:59.023Z,31.02
2018-01-11T00:08:26.622Z,28.65
2018-01-11T00:10:54.218Z,29.87
2018-01-11T00:13:21.812Z,28.05
2018-01-11T00:15:49.422Z,28.27
2018-01-11T00:18:17.864Z,29.52
2018-01-11T00:20:45.473Z,28.20
2018-01-11T00:23:13.843Z,29.83
2018-01-11T00:25:41.430Z,28.45
2018-01-11T00:28:09.033Z,30.65
2018-01-11T00:30:36.626Z,28.90
2018-01-11T00:33:04.220Z,26.37
2018-01-11T00:35:32.605Z,26.83
2018-01-11T00:38:01.433Z,28.42
2018-01-11T00:40:29.023Z,27.87
2018-01-11T00:42:56.617Z,26.75
2018-01-11T00:45:24.207Z,27.30
2018-01-11T00:47:51.862Z,26.40
2018-01-11T00:50:19.452Z,28.52
2018-01-11T00:52:47.077Z,27.20
2018-01-11T00:55:14.664Z,26.60
2018-01-11T00:57:43.071Z,26.00
2018-01-11T01:00:10.667Z,26.08
2018-01-11T01:02:38.259Z,27.50
2018-01-11T01:05:06.653Z,26.17
2018-01-11T01:07:35.017Z,25.23
2018-01-11T01:10:02.606Z,26.48
2018-01-11T01:12:30.206Z,25.50
2018-01-11T01:14:57.796Z,26.08
2018-01-11T01:17:25.390Z,25.33
2018-01-11T01:19:52.981Z,25.55
2018-01-11T01:22:20.659Z,28.20
2018-01-11T01:24:48.252Z,26.83
2018-01-11T01:27:15.848Z,28.25
2018-01-11T01:29:44.202Z,30.83
2018-01-11T01:32:11.821Z,29.58
2018-01-11T01:34:39.406Z,26.83
2018-01-11T01:37:06.997Z,28.02
2018-01-11T01:39:34.593Z,29.02
2018-01-11T01:42:02.968Z,29.00
2018-01-11T01:44:30.562Z,29.25
2018-01-11T01:46:58.151Z,29.90
2018-01-11T01:49:25.743Z,26.65
2018-01-11T01:51:53.355Z,32.08
2018-01-11T01:54:20.955Z,28.40
2018-01-11T01:56:48.544Z,26.52
2018-01-11T01:59:16.139Z,29.73
2018-01-11T02:01:44.542Z,28.05
2018-01-11T02:04:12.136Z,29.58
2018-01-11T02:06:39.727Z,25.90
2018-01-11T02:09:07.326Z,28.77
2018-01-11T02:11:34.920Z,28.15
2018-01-11T02:14:02.519Z,25.90
2018-01-11T02:16:30.110Z,28.10
2018-01-11T02:18:57.700Z,28.38
2018-01-11T02:21:25.295Z,27.15
2018-01-11T02:23:52.883Z,28.87
2018-01-11T02:26:20.530Z,27.87
2018-01-11T02:28:48.126Z,26.45
2018-01-11T02:31:16.486Z,27.30
2018-01-11T02:33:44.088Z,27.98
2018-01-11T02:36:11.683Z,28.00
2018-01-11T02:38:39.267Z,29.00
2018-01-11T02:41:06.854Z,32.95
2018-01-11T02:43:34.441Z,30.48
2018-01-11T02:46:02.800Z,29.27
2018-01-11T02:48:30.401Z,27.92
2018-01-11T02:50:57.990Z,27.00
2018-01-11T02:53:25.584Z,28.70
2018-01-11T02:55:53.175Z,26.55
2018-01-11T02:58:21.560Z,25.75
2018-01-11T03:00:49.923Z,25.10
2018-01-11T03:03:17.576Z,26.25
2018-01-11T03:05:45.166Z,24.40
2018-01-11T03:08:13.528Z,24.02
2018-01-11T03:10:41.163Z,22.20
2018-01-11T03:13:08.751Z,23.42
2018-01-11T03:15:36.344Z,24.70
2018-01-11T03:18:03.932Z,23.70
2018-01-11T03:20:31.526Z,24.83
2018-01-11T03:22:59.128Z,22.67
2018-01-11T03:25:26.729Z,23.30
2018-01-11T03:27:54.319Z,23.12
2018-01-11T03:30:21.916Z,24.73
2018-01-11T03:32:49.512Z,24.48
2018-01-11T03:35:17.891Z,23.70
2018-01-11T03:37:46.246Z,23.05
2018-01-11T03:40:13.845Z,23.98
2018-01-11T03:42:41.441Z,22.08
2018-01-11T03:45:09.035Z,22.60
2018-01-11T03:47:36.630Z,21.80
2018-01-11T03:50:04.991Z,22.70
2018-01-11T03:52:32.584Z,21.42
2018-01-11T03:55:00.175Z,21.75
2018-01-11T03:57:27.767Z,21.10
2018-01-11T03:59:55.360Z,24.23
2018-01-11T04:02:22.956Z,22.37
2018-01-11T04:04:50.560Z,22.62
2018-01-11T04:07:18.156Z,22.92
2018-01-11T04:09:45.752Z,23.42
2018-01-11T04:12:13.360Z,23.77
2018-01-11T04:14:40.954Z,23.90
2018-01-11T04:17:08.546Z,23.42
2018-01-11T04:19:36.156Z,25.83
2018-01-11T04:22:03.756Z,24.35
2018-01-11T04:24:32.132Z,22.60
2018-01-11T04:26:59.726Z,24.70
2018-01-11T04:29:27.339Z,23.17
2018-01-11T04:31:54.929Z,22.45
2018-01-11T04:34:23.275Z,25.15
2018-01-11T04:36:50.908Z,21.77
2018-01-11T04:39:18.539Z,24.02
2018-01-11T04:41:46.898Z,23.67
2018-01-11T04:44:14.494Z,26.50
2018-01-11T04:46:42.850Z,26.48
2018-01-11T04:49:10.458Z,24.77
2018-01-11T04:51:38.039Z,25.00
2018-01-11T04:54:05.631Z,24.65
2018-01-11T04:56:33.224Z,26.05
2018-01-11T04:59:00.819Z,28.48
2018-01-11T05:01:28.406Z,29.30
2018-01-11T05:03:56.002Z,31.73
2018-01-11T05:06:23.591Z,32.10
2018-01-11T05:08:51.184Z,32.22
2018-01-11T05:11:18.787Z,36.70
2018-01-11T05:13:46.438Z,34.38
2018-01-11T05:16:14.035Z,35.72
2018-01-11T05:18:41.638Z,32.92
2018-01-11T05:21:09.251Z,32.40
2018-01-11T05:23:36.898Z,33.05
2018-01-11T05:26:04.493Z,37.15
2018-01-11T05:28:32.092Z,33.78
2018-01-11T05:30:59.684Z,36.08
2018-01-11T05:33:27.291Z,30.95
2018-01-11T05:35:54.882Z,31.65
2018-01-11T05:38:23.243Z,28.92
2018-01-11T05:40:50.832Z,27.37
2018-01-11T05:43:19.187Z,28.38
2018-01-11T05:45:46.774Z,27.33
2018-01-11T05:48:14.384Z,27.62
2018-01-11T05:50:41.980Z,26.75
2018-01-11T05:53:09.583Z,28.40
2018-01-11T05:55:37.178Z,30.35
2018-01-11T05:58:04.764Z,30.12
2018-01-11T06:00:32.350Z,32.58
2018-01-11T06:02:59.943Z,30.85
2018-01-11T06:05:27.538Z,30.70
2018-01-11T06:07:55.132Z,30.50
2018-01-11T06:10:22.731Z,31.00
2018-01-11T06:12:50.633Z,28.65
2018-01-11T06:15:18.222Z,32.78
2018-01-11T06:17:45.811Z,31.15
2018-01-11T06:20:13.439Z,31.95
2018-01-11T06:22:41.032Z,32.25
2018-01-11T06:25:08.621Z,28.58
2018-01-11T06:27:36.974Z,30.23
2018-01-11T06:30:04.580Z,27.45
2018-01-11T06:32:32.164Z,28.02
2018-01-11T06:34:59.754Z,26.95
2018-01-11T06:37:27.353Z,26.75
2018-01-11T06:39:54.939Z,25.85
2018-01-11T06:42:23.316Z,27.30
2018-01-11T06:44:51.713Z,30.52
2018-01-11T06:47:19.311Z,31.35
2018-01-11T06:49:46.904Z,29.42
2018-01-11T06:52:14.524Z,28.85
2018-01-11T06:54:42.116Z,29.65
2018-01-11T06:57:09.736Z,31.30
2018-01-11T06:59:37.327Z,29.90
2018-01-11T07:02:04.955Z,27.65
2018-01-11T07:04:33.334Z,28.50
2018-01-11T07:07:00.934Z,27.08
2018-01-11T07:09:28.532Z,28.58
2018-01-11T07:11:56.122Z,29.23
2018-01-11T07:14:24.483Z,28.45
2018-01-11T07:16:52.072Z,29.45
2018-01-11T07:19:20.430Z,30.50
2018-01-11T07:21:48.026Z,31.25
2018-01-11T07:24:15.627Z,31.45
2018-01-11T07:26:43.219Z,32.38
2018-01-11T07:29:10.820Z,31.50
2018-01-11T07:31:39.177Z,31.10
2018-01-11T07:34:06.783Z,31.08
2018-01-11T07:36:34.388Z,28.98
2018-01-11T07:39:02.031Z,31.77
2018-01-11T07:41:29.619Z,31.80
2018-01-11T07:43:57.218Z,31.02
2018-01-11T07:46:25.568Z,32.92
2018-01-11T07:48:53.165Z,32.00
2018-01-11T07:51:21.575Z,34.40
2018-01-11T07:53:49.199Z,34.40
2018-01-11T07:56:16.803Z,34.17
2018-01-11T07:58:44.410Z,35.22
2018-01-11T08:01:12.007Z,35.28
2018-01-11T08:03:40.448Z,34.10
2018-01-11T08:06:08.068Z,33.60
2018-01-11T08:08:35.688Z,35.60
2018-01-11T08:11:03.280Z,35.35
2018-01-11T08:13:31.643Z,36.60
2018-01-11T08:15:59.241Z,36.70
2018-01-11T08:18:27.598Z,34.42
2018-01-11T08:20:55.187Z,36.83
2018-01-11T08:23:22.772Z,35.30
2018-01-11T08:25:50.360Z,31.62
2018-01-11T08:28:17.960Z,33.90
2018-01-11T08:30:45.561Z,33.65
2018-01-11T08:33:13.160Z,35.35
2018-01-11T08:35:40.748Z,34.30
2018-01-11T08:38:08.345Z,33.42
2018-01-11T08:40:36.723Z,34.45
2018-01-11T08:43:04.306Z,34.80
2018-01-11T08:45:31.900Z,39.25
2018-01-11T08:47:59.503Z,50.30
2018-01-11T08:50:27.086Z,43.15
2018-01-11T08:52:55.443Z,44.50
2018-01-11T08:55:23.042Z,44.60
2018-01-11T08:57:50.670Z,43.65
2018-01-11T09:00:18.267Z,38.00
2018-01-11T09:02:45.879Z,34.05
2018-01-11T09:05:13.467Z,32.20
2018-01-11T09:07:41.061Z,31.75
2018-01-11T09:10:09.419Z,32.80
2018-01-11T09:12:37.012Z,31.80
2018-01-11T09:15:04.624Z,31.80
2018-01-11T09:17:32.211Z,31.02
2018-01-11T09:19:59.835Z,30.45
2018-01-11T09:22:27.419Z,39.47
2018-01-11T09:24:55.020Z,36.63
2018-01-11T09:27:23.385Z,46.75
2018-01-11T09:29:50.982Z,43.70
2018-01-11T09:32:19.335Z,35.25
2018-01-11T09:34:46.923Z,31.27
2018-01-11T09:37:15.286Z,30.23
2018-01-11T09:39:42.888Z,30.37
2018-01-11T09:42:10.523Z,29.05
2018-01-11T09:44:38.125Z,28.80
2018-01-11T09:47:05.714Z,27.70
2018-01-11T09:49:33.339Z,27.30
2018-01-11T09:52:01.697Z,26.85
2018-01-11T09:54:29.287Z,26.62
2018-01-11T09:56:57.835Z,28.23
2018-01-11T09:59:25.425Z,26.60
2018-01-11T10:01:53.039Z,25.10
2018-01-11T10:04:20.632Z,26.30
2018-01-11T10:06:48.227Z,27.80
2018-01-11T10:09:15.820Z,26.05
2018-01-11T10:11:43.408Z,28.48
2018-01-11T10:14:11.004Z,28.62
2018-01-11T10:16:38.599Z,28.80
2018-01-11T10:19:06.323Z,28.08
2018-01-11T10:21:33.935Z,26.55
2018-01-11T10:24:01.549Z,27.90
2018-01-11T10:26:29.181Z,27.85
2018-01-11T10:28:56.795Z,28.48
2018-01-11T10:31:24.390Z,27.05
2018-01-11T10:33:52.747Z,27.48
2018-01-11T10:36:20.349Z,27.00
2018-01-11T10:38:47.943Z,27.25
2018-01-11T10:41:15.547Z,26.65
2018-01-11T10:43:43.903Z,27.05
2018-01-11T10:46:11.508Z,28.60
2018-01-11T10:48:39.911Z,27.20
2018-01-11T10:51:07.513Z,30.30
2018-01-11T10:53:35.106Z,28.65
2018-01-11T10:56:02.704Z,31.85
2018-01-11T10:58:30.418Z,32.03
2018-01-11T11:01:03.569Z,32.00
2018-01-11T11:03:31.213Z,31.67
2018-01-11T11:05:59.772Z,31.30
2018-01-11T11:08:27.387Z,28.67
2018-01-11T11:10:55.824Z,29.45
2018-01-11T11:13:23.435Z,26.20
2018-01-11T11:15:51.088Z,28.38
2018-01-11T11:18:18.687Z,26.48
2018-01-11T11:20:50.960Z,26.15
2018-01-11T11:23:22.384Z,27.35
2018-01-11T11:25:49.996Z,26.45
2018-01-11T11:28:17.642Z,28.70
2018-01-11T11:30:46.276Z,25.80
2018-01-11T11:33:13.891Z,27.83
2018-01-11T11:35:41.502Z,28.90
2018-01-11T11:38:09.904Z,26.02
2018-01-11T11:40:37.560Z,26.23
2018-01-11T11:43:05.943Z,27.13
2018-01-11T11:45:34.325Z,28.05
2018-01-11T11:48:02.708Z,28.15
2018-01-11T11:50:31.306Z,27.70
2018-01-11T11:52:58.915Z,25.67
2018-01-11T11:55:26.587Z,28.35
2018-01-11T11:57:54.184Z,27.92
2018-01-11T12:00:22.622Z,35.53
2018-01-11T12:02:51.252Z,36.80
2018-01-11T12:05:18.842Z,30.30
2018-01-11T12:07:46.435Z,30.48
2018-01-11T12:10:14.032Z,28.40
2018-01-11T12:12:41.620Z,26.73
2018-01-11T12:15:09.208Z,28.33
2018-01-11T12:17:36.793Z,26.83
2018-01-11T12:20:04.423Z,28.15
2018-01-11T12:22:32.785Z,27.42
2018-01-11T12:25:00.387Z,27.58
2018-01-11T12:27:27.992Z,26.77
2018-01-11T12:29:55.588Z,27.17
2018-01-11T12:32:23.180Z,26.10
2018-01-11T12:34:50.773Z,26.37
2018-01-11T12:37:18.367Z,27.23
2018-01-11T12:39:45.960Z,26.48
2018-01-11T12:42:14.321Z,24.98
2018-01-11T12:44:41.912Z,31.10
2018-01-11T12:47:10.263Z,26.12
2018-01-11T12:49:37.856Z,26.27
2018-01-11T12:52:05.445Z,25.33
2018-01-11T12:54:33.051Z,26.27
2018-01-11T12:57:00.643Z,23.95
2018-01-11T12:59:29.007Z,26.40
2018-01-11T13:01:56.601Z,27.62
2018-01-11T13:04:25.975Z,26.87
2018-01-11T13:06:54.555Z,24.60
2018-01-11T13:09:22.150Z,29.48
2018-01-11T13:11:49.761Z,24.37
2018-01-11T13:14:17.354Z,23.95
2018-01-11T13:16:44.946Z,26.30
2018-01-11T13:19:12.539Z,28.40
2018-01-11T13:21:40.166Z,30.23
2018-01-11T13:24:07.822Z,32.30
2018-01-11T13:26:36.409Z,30.95
2018-01-11T13:29:04.008Z,28.10
2018-01-11T13:31:31.608Z,29.80
2018-01-11T13:33:59.199Z,33.42
2018-01-11T13:36:26.803Z,36.13
2018-01-11T13:38:54.422Z,41.37
2018-01-11T13:41:22.007Z,40.40
2018-01-11T13:43:50.375Z,40.97
2018-01-11T13:46:17.966Z,43.33
2018-01-11T13:48:46.324Z,43.28
2018-01-11T13:51:13.926Z,44.08
2018-01-11T13:53:42.425Z,41.17
2018-01-11T13:56:10.048Z,43.60
2018-01-11T13:58:37.647Z,42.30
2018-01-11T14:01:05.262Z,42.10
2018-01-11T14:03:32.942Z,41.67
2018-01-11T14:06:00.612Z,41.55
2018-01-11T14:08:28.231Z,39.35
2018-01-11T14:10:55.829Z,43.72
2018-01-11T14:13:23.423Z,45.15
2018-01-11T14:15:51.019Z,46.45
2018-01-11T14:18:18.639Z,45.12
2018-01-11T14:20:46.234Z,42.03
2018-01-11T14:23:15.015Z,41.53
2018-01-11T14:28:34.030Z,45.88
2018-01-11T14:31:01.580Z,41.67
2018-01-11T14:33:29.128Z,43.00
2018-01-11T14:35:57.459Z,46.22
2018-01-11T14:38:25.049Z,41.45
2018-01-11T14:40:52.606Z,41.05
2018-01-11T14:43:21.160Z,40.92
2018-01-11T14:45:48.730Z,43.03
2018-01-11T14:48:16.290Z,40.65
2018-01-11T14:50:43.842Z,38.90
2018-01-11T14:53:11.398Z,42.38
2018-01-11T14:55:38.948Z,39.45
2018-01-11T14:58:07.300Z,37.03
2018-01-11T15:00:34.884Z,38.60
2018-01-11T15:03:03.208Z,38.15
2018-01-11T15:05:30.775Z,36.15
2018-01-11T15:07:58.342Z,35.30
2018-01-11T15:10:27.028Z,34.63
2018-01-11T15:12:55.333Z,37.33
2018-01-11T15:15:23.829Z,37.13
2018-01-11T15:17:51.408Z,37.15
2018-01-11T15:20:20.217Z,36.40
2018-01-11T15:22:48.544Z,35.10
2018-01-11T15:25:16.128Z,36.85
2018-01-11T15:27:43.709Z,35.67
2018-01-11T15:30:11.348Z,39.42
2018-01-11T15:32:38.918Z,34.17
2018-01-11T15:35:06.477Z,34.95
2018-01-11T15:37:34.033Z,38.25
2018-01-11T15:40:05.729Z,36.95
2018-01-11T15:42:35.331Z,36.97
2018-01-11T15:45:02.909Z,37.03
2018-01-11T15:47:30.492Z,36.95
2018-01-11T15:49:58.049Z,36.53
2018-01-11T15:52:25.604Z,36.17
2018-01-11T15:54:53.151Z,35.70
2018-01-11T15:57:21.699Z,36.88
2018-01-11T15:59:49.254Z,34.90
2018-01-11T16:02:16.801Z,34.65
2018-01-11T16:04:44.351Z,40.85
2018-01-11T16:07:12.770Z,38.17
2018-01-11T16:09:40.317Z,42.67
2018-01-11T16:12:07.886Z,41.42
2018-01-11T16:14:35.436Z,41.50
2018-01-11T16:17:03.002Z,41.28
2018-01-11T16:19:30.562Z,38.35
2018-01-11T16:21:58.130Z,38.38
2018-01-11T16:24:25.731Z,37.45
2018-01-11T16:26:53.269Z,38.08
2018-01-11T16:29:20.836Z,34.95
2018-01-11T16:31:48.388Z,37.92
2018-01-11T16:34:15.933Z,37.42
2018-01-11T16:36:44.235Z,40.85
2018-01-11T16:39:11.832Z,39.53
2018-01-11T16:41:39.383Z,38.03
2018-01-11T16:44:06.923Z,37.65
2018-01-11T16:46:34.473Z,37.83
2018-01-11T16:49:02.780Z,40.42
2018-01-11T16:51:30.332Z,37.42
2018-01-11T16:53:57.922Z,38.40
2018-01-11T16:56:25.469Z,39.30
2018-01-11T16:58:53.008Z,38.60
2018-01-11T17:01:20.588Z,49.95
2018-01-11T17:03:48.132Z,51.28
2018-01-11T17:06:16.450Z,55.85
2018-01-11T17:08:43.993Z,53.08
2018-01-11T17:11:12.299Z,56.45
2018-01-11T17:13:39.848Z,53.25
2018-01-11T17:16:07.396Z,46.37
2018-01-11T17:18:35.705Z,43.15
2018-01-11T17:21:03.252Z,43.85
2018-01-11T17:23:30.822Z,40.05
2018-01-11T17:25:58.365Z,37.53
2018-01-11T17:28:26.668Z,37.40
2018-01-11T17:30:54.232Z,35.00
2018-01-11T17:33:21.776Z,35.45
2018-01-11T17:35:49.320Z,37.03
2018-01-11T17:38:16.891Z,37.13
2018-01-11T17:40:44.433Z,37.50
2018-01-11T17:43:11.983Z,36.35
2018-01-11T17:45:39.528Z,41.50
2018-01-11T17:48:07.075Z,39.08
2018-01-11T17:50:34.653Z,39.22
2018-01-11T17:53:02.206Z,39.13
2018-01-11T17:55:29.787Z,39.75
2018-01-11T17:57:57.328Z,39.28
2018-01-11T18:00:24.881Z,39.63
2018-01-11T18:02:53.191Z,35.90
2018-01-11T18:05:20.782Z,36.55
2018-01-11T18:07:48.490Z,36.58
2018-01-11T18:10:16.036Z,34.47
2018-01-11T18:12:43.581Z,37.25
2018-01-11T18:15:11.133Z,35.40
2018-01-11T18:17:38.677Z,37.53
2018-01-11T18:20:06.235Z,37.22
2018-01-11T18:22:33.787Z,37.22
2018-01-11T18:25:01.340Z,37.08
2018-01-11T18:27:30.652Z,36.50
2018-01-11T18:29:58.961Z,39.25
2018-01-11T18:32:26.539Z,37.38
2018-01-11T18:34:55.097Z,36.55
2018-01-11T18:37:22.638Z,36.78
2018-01-11T18:39:50.948Z,38.22
2018-01-11T18:42:18.556Z,39.33
2018-01-11T18:44:46.109Z,35.67
2018-01-11T18:47:13.653Z,36.50
2018-01-11T18:49:41.196Z,37.30
2018-01-11T18:52:08.756Z,37.65
2018-01-11T18:54:36.322Z,36.60
2018-01-11T18:57:04.808Z,38.30
2018-01-11T18:59:32.375Z,37.85
2018-01-11T19:02:00.857Z,36.85
2018-01-11T19:04:28.476Z,37.08
2018-01-11T19:06:57.949Z,37.72
2018-01-11T19:09:26.429Z,37.50
2018-01-11T19:11:53.981Z,41.97
2018-01-11T19:14:21.530Z,36.20
2018-01-11T19:16:49.093Z,37.17
2018-01-11T19:19:17.705Z,36.42
2018-01-11T19:21:45.304Z,36.80
2018-01-11T19:24:12.876Z,36.22
2018-01-11T19:26:40.439Z,36.05
2018-01-11T19:29:07.996Z,37.20
2018-01-11T19:31:35.552Z,37.20
2018-01-11T19:34:03.094Z,36.72
2018-01-11T19:36:30.640Z,36.28
2018-01-11T19:38:58.189Z,35.90
2018-01-11T19:41:26.497Z,37.10
2018-01-11T19:43:54.051Z,38.78
2018-01-11T19:46:21.609Z,37.65
2018-01-11T19:48:49.920Z,35.20
2018-01-11T19:51:17.472Z,35.95
2018-01-11T19:53:45.024Z,35.88
2018-01-11T19:56:12.573Z,38.13
2018-01-11T19:58:40.889Z,32.03
2018-01-11T20:01:08.449Z,35.53
2018-01-11T20:03:36.008Z,36.13
2018-01-11T20:06:04.593Z,35.10
2018-01-11T20:08:32.137Z,36.97
2018-01-11T20:11:00.449Z,35.22
2018-01-11T20:13:27.995Z,35.72
2018-01-11T20:15:55.608Z,35.35
2018-01-11T20:18:23.176Z,33.03
2018-01-11T20:20:50.732Z,32.85
2018-01-11T20:23:18.306Z,30.67
2018-01-11T20:25:45.885Z,32.47
2018-01-11T20:28:13.462Z,30.85
2018-01-11T20:30:41.828Z,29.80
2018-01-11T20:33:09.397Z,27.98
2018-01-11T20:35:37.734Z,26.80
2018-01-11T20:38:05.331Z,29.25
2018-01-11T20:40:32.884Z,29.08
2018-01-11T20:43:00.441Z,26.75
2018-01-11T20:45:28.029Z,26.45
2018-01-11T20:47:56.556Z,25.42
2018-01-11T20:50:24.134Z,25.30
2018-01-11T20:52:51.682Z,27.05
2018-01-11T20:55:19.224Z,26.33
2018-01-11T20:57:47.531Z,26.40
2018-01-11T21:00:15.069Z,25.65
2018-01-11T21:02:43.385Z,25.80
2018-01-11T21:05:11.864Z,25.02
2018-01-11T21:07:39.566Z,26.25
2018-01-11T21:10:07.104Z,22.98
2018-01-11T21:12:34.649Z,24.20
2018-01-11T21:15:02.195Z,22.60
2018-01-11T21:17:30.510Z,20.85
2018-01-11T21:19:58.069Z,22.08
2018-01-11T21:22:25.615Z,20.60
2018-01-11T21:24:53.931Z,19.65
2018-01-11T21:27:21.468Z,20.58
2018-01-11T21:29:49.012Z,20.95
2018-01-11T21:32:17.316Z,19.95
2018-01-11T21:34:44.875Z,19.85
2018-01-11T21:37:12.433Z,18.58
2018-01-11T21:39:40.744Z,17.30
2018-01-11T21:42:08.283Z,18.40
2018-01-11T21:44:35.828Z,18.73
2018-01-11T21:47:04.133Z,16.25
2018-01-11T21:49:31.680Z,15.70
2018-01-11T21:51:59.992Z,16.77
2018-01-11T21:54:27.545Z,16.70
2018-01-11T21:56:55.092Z,17.92
2018-01-11T21:59:22.982Z,16.30
2018-01-11T22:01:50.524Z,16.73
2018-01-11T22:04:18.072Z,15.43
2018-01-11T22:06:45.620Z,18.25
2018-01-11T22:09:13.164Z,19.25
2018-01-11T22:11:40.708Z,18.08
2018-01-11T22:14:08.260Z,17.58
2018-01-11T22:16:35.797Z,17.95
2018-01-11T22:19:03.575Z,17.40
2018-01-11T22:21:31.879Z,15.90
2018-01-11T22:23:59.424Z,17.20
2018-01-11T22:26:27.732Z,17.87
2018-01-11T22:28:55.284Z,18.02
2018-01-11T22:31:22.849Z,17.48
2018-01-11T22:33:50.393Z,17.90
2018-01-11T22:36:18.709Z,21.70
2018-01-11T22:38:46.249Z,20.10
2018-01-11T22:41:13.820Z,21.62
2018-01-11T22:43:41.373Z,19.08
2018-01-11T22:46:08.917Z,19.37
2018-01-11T22:48:36.460Z,20.02
2018-01-11T22:51:04.005Z,19.92
2018-01-11T22:53:31.554Z,18.52
2018-01-11T22:55:59.140Z,17.75
2018-01-11T22:58:26.682Z,18.00
2018-01-11T23:00:54.220Z,17.83
2018-01-11T23:03:22.553Z,19.02
2018-01-11T23:05:50.103Z,19.50
2018-01-11T23:08:17.656Z,19.15
2018-01-11T23:10:45.231Z,20.40
2018-01-11T23:13:12.780Z,20.55
2018-01-11T23:15:40.329Z,22.60
2018-01-11T23:18:07.867Z,20.33
2018-01-11T23:20:36.184Z,18.15
2018-01-11T23:23:03.727Z,17.30
2018-01-11T23:25:32.048Z,17.60
2018-01-11T23:27:59.588Z,19.00
2018-01-11T23:30:27.144Z,20.45
2018-01-11T23:32:54.681Z,18.65
2018-01-11T23:35:22.234Z,19.40
2018-01-11T23:37:49.780Z,18.55
2018-01-11T23:40:17.337Z,22.55
2018-01-11T23:42:44.891Z,19.55
2018-01-11T23:45:12.442Z,19.95
2018-01-11T23:47:39.992Z,18.20
2018-01-11T23:50:07.541Z,19.35
2018-01-11T23:52:35.853Z,19.92
2018-01-11T23:55:03.445Z,17.55
2018-01-11T23:57:30.996Z,17.80
2018-01-11T23:59:59.447Z,17.35
